Time;durP1;ratioP1;P1;durP2;ratioP2;P2;SDS_P1;SDS_P2;PMS_P1;PMS_P2;Temp;Humidity;BMP_temperature;BMP_pressure;BME280_temperature;BME280_humidity;BME280_pressure;Samples;Min_cycle;Max_cycle;Signal;HPM_P1;HPM_P2
2022/06/24 00:00:41;;;;;;;8.77;5.80;;;21.70;72.80;;;;;;5011560;28;20108;-91
2022/06/24 00:03:16;;;;;;;7.38;5.45;;;21.70;72.80;;;;;;5011698;28;20104;-91
2022/06/24 00:05:43;;;;;;;7.15;5.40;;;21.70;72.90;;;;;;5011044;28;20042;-91
2022/06/24 00:08:10;;;;;;;10.23;5.88;;;21.60;72.90;;;;;;5011301;28;20048;-92
2022/06/24 00:10:37;;;;;;;9.25;5.85;;;21.70;72.90;;;;;;5011760;28;20502;-91
2022/06/24 00:13:06;;;;;;;8.85;5.50;;;21.70;72.90;;;;;;5011239;28;20053;-90
2022/06/24 00:15:35;;;;;;;8.35;5.45;;;21.60;72.90;;;;;;4993369;28;20499;-91
2022/06/24 00:18:17;;;;;;;8.95;5.45;;;21.60;73.00;;;;;;5005005;28;20060;-91
2022/06/24 00:20:46;;;;;;;7.28;5.22;;;21.60;73.00;;;;;;5032564;28;20132;-91
2022/06/24 00:23:16;;;;;;;8.85;5.53;;;21.60;73.00;;;;;;5032778;28;20049;-91
2022/06/24 00:25:46;;;;;;;6.97;5.05;;;21.60;73.10;;;;;;5029063;28;20049;-91
2022/06/24 00:28:13;;;;;;;7.93;5.35;;;21.50;73.10;;;;;;5012986;28;20053;-91
2022/06/24 00:30:41;;;;;;;8.60;5.32;;;21.60;73.10;;;;;;5013612;28;20049;-91
2022/06/24 00:33:19;;;;;;;8.27;5.53;;;21.50;73.10;;;;;;5012975;28;20502;-90
2022/06/24 00:35:49;;;;;;;10.30;5.80;;;21.50;73.20;;;;;;5013365;28;20053;-90
2022/06/24 00:38:29;;;;;;;7.70;5.38;;;21.50;73.20;;;;;;5013602;28;20053;-91
2022/06/24 00:41:06;;;;;;;10.25;5.65;;;21.50;73.20;;;;;;5018492;28;20041;-91
2022/06/24 00:43:39;;;;;;;7.82;5.60;;;21.40;73.30;;;;;;5030604;28;20441;-91
2022/06/24 00:46:10;;;;;;;7.72;5.72;;;21.40;73.30;;;;;;5031745;28;20049;-90
2022/06/24 00:48:45;;;;;;;9.40;5.70;;;21.40;73.30;;;;;;5029217;28;20057;-91
2022/06/24 00:51:12;;;;;;;9.98;5.80;;;21.40;73.40;;;;;;5027717;28;20053;-91
2022/06/24 00:53:48;;;;;;;7.13;5.35;;;21.40;73.40;;;;;;5028374;28;22120;-91
2022/06/24 00:56:19;;;;;;;9.57;5.78;;;21.40;73.40;;;;;;5027986;28;20046;-91
2022/06/24 00:58:58;;;;;;;8.10;5.72;;;21.40;73.40;;;;;;5030702;28;20053;-91
2022/06/24 01:01:31;;;;;;;7.68;5.40;;;21.30;73.50;;;;;;5012966;28;20050;-90
2022/06/24 01:04:00;;;;;;;7.88;5.75;;;21.40;73.50;;;;;;5030708;28;20060;-90
2022/06/24 01:06:28;;;;;;;11.00;6.32;;;21.30;73.50;;;;;;5015293;28;20100;-91
2022/06/24 01:08:57;;;;;;;9.45;5.88;;;21.30;73.50;;;;;;5021834;28;20045;-90
2022/06/24 01:11:28;;;;;;;8.63;5.82;;;21.20;73.50;;;;;;5030203;28;20041;-91
2022/06/24 01:13:56;;;;;;;8.10;5.10;;;21.30;73.60;;;;;;5028653;28;20057;-90
2022/06/24 01:16:24;;;;;;;7.95;5.47;;;21.20;73.60;;;;;;5032523;28;20053;-90
2022/06/24 01:18:57;;;;;;;7.70;5.25;;;21.20;73.60;;;;;;5029573;28;20490;-91
2022/06/24 01:21:36;;;;;;;8.00;5.68;;;21.20;73.60;;;;;;5031385;28;20050;-90
2022/06/24 01:24:03;;;;;;;7.57;5.65;;;21.10;73.60;;;;;;5031912;28;20068;-90
2022/06/24 01:26:30;;;;;;;7.82;6.07;;;21.10;73.60;;;;;;5026018;28;20053;-90
2022/06/24 01:28:57;;;;;;;9.07;5.60;;;21.10;73.70;;;;;;5021387;28;20103;-90
2022/06/24 01:31:24;;;;;;;9.75;5.30;;;21.10;73.70;;;;;;5035786;28;20484;-90
2022/06/24 01:33:51;;;;;;;7.18;5.70;;;21.10;73.70;;;;;;5036237;28;20049;-90
2022/06/24 01:36:18;;;;;;;7.63;5.72;;;21.10;73.70;;;;;;5034567;28;20491;-90
2022/06/24 01:38:45;;;;;;;8.57;6.03;;;21.00;73.70;;;;;;5035268;28;20052;-90
2022/06/24 01:41:12;;;;;;;7.28;5.40;;;21.00;73.70;;;;;;5033378;28;20161;-91
2022/06/24 01:43:40;;;;;;;9.15;5.60;;;21.00;73.70;;;;;;5036168;28;20042;-91
2022/06/24 01:46:07;;;;;;;9.45;6.22;;;20.90;73.80;;;;;;5034638;28;20053;-90
2022/06/24 01:48:34;;;;;;;8.07;5.68;;;20.90;73.80;;;;;;5027450;28;20058;-90
2022/06/24 01:51:01;;;;;;;11.57;5.65;;;20.90;73.80;;;;;;5027577;28;20056;-90
2022/06/24 01:53:28;;;;;;;7.97;5.88;;;20.90;73.90;;;;;;5026554;28;20084;-91
2022/06/24 01:55:55;;;;;;;7.93;5.70;;;20.90;73.90;;;;;;5020745;28;20045;-91
2022/06/24 01:58:22;;;;;;;9.38;5.72;;;20.90;73.90;;;;;;5034933;28;20499;-91
2022/06/24 02:00:49;;;;;;;7.22;5.95;;;20.80;73.90;;;;;;5034671;28;20056;-90
2022/06/24 02:03:16;;;;;;;9.50;5.75;;;20.80;74.00;;;;;;5027961;28;20041;-90
2022/06/24 02:05:45;;;;;;;8.93;5.90;;;20.80;74.00;;;;;;5031506;28;20061;-90
2022/06/24 02:08:13;;;;;;;8.68;5.78;;;20.80;74.00;;;;;;5034803;28;20041;-90
2022/06/24 02:13:26;;;;;;;8.40;5.45;;;20.70;74.00;;;;;;5032185;28;20053;-90
2022/06/24 02:16:01;;;;;;;7.25;5.95;;;20.70;74.10;;;;;;5033291;28;20045;-90
2022/06/24 02:18:29;;;;;;;8.82;5.70;;;20.70;74.10;;;;;;5032696;28;20088;-90
2022/06/24 02:20:57;;;;;;;8.55;5.95;;;20.70;74.10;;;;;;5031941;28;20045;-91
2022/06/24 02:23:26;;;;;;;10.63;6.20;;;20.60;74.10;;;;;;5033232;28;20075;-91
2022/06/24 02:25:54;;;;;;;8.70;5.82;;;20.60;74.10;;;;;;5032195;28;20518;-90
2022/06/24 02:28:22;;;;;;;7.05;5.60;;;20.60;74.10;;;;;;5034683;28;20061;-89
2022/06/24 02:30:53;;;;;;;8.27;5.85;;;20.50;74.10;;;;;;5031344;28;20417;-90
2022/06/24 02:33:20;;;;;;;9.52;5.88;;;20.50;74.20;;;;;;5031545;28;20049;-90
2022/06/24 02:35:47;;;;;;;7.78;5.70;;;20.50;74.20;;;;;;5030552;28;20111;-90
2022/06/24 02:38:14;;;;;;;7.85;5.53;;;20.50;74.20;;;;;;5031742;28;20111;-90
2022/06/24 02:40:47;;;;;;;8.15;5.88;;;20.40;74.20;;;;;;5033532;28;20061;-90
2022/06/24 02:43:24;;;;;;;8.23;6.13;;;20.40;74.30;;;;;;5035143;28;20049;-90
2022/06/24 02:46:02;;;;;;;7.25;5.43;;;20.40;74.30;;;;;;5045637;28;20042;-90
2022/06/24 02:48:32;;;;;;;10.10;5.85;;;20.40;74.40;;;;;;5046056;28;20462;-90
2022/06/24 02:51:01;;;;;;;8.77;5.32;;;20.30;74.40;;;;;;5028066;28;20410;-89
2022/06/24 02:53:29;;;;;;;7.53;5.97;;;20.30;74.40;;;;;;5032348;28;20057;-89
2022/06/24 02:56:01;;;;;;;12.45;5.90;;;20.30;74.40;;;;;;5033096;28;20049;-89
2022/06/24 02:58:30;;;;;;;11.13;5.82;;;20.30;74.40;;;;;;5033297;28;20053;-89
2022/06/24 03:00:59;;;;;;;8.75;6.07;;;20.30;74.50;;;;;;5032397;28;20049;-89
2022/06/24 03:03:26;;;;;;;9.32;5.90;;;20.20;74.50;;;;;;5032647;28;20136;-90
2022/06/24 03:05:53;;;;;;;8.25;5.97;;;20.30;74.50;;;;;;5032482;28;20049;-90
2022/06/24 03:08:23;;;;;;;10.60;5.53;;;20.20;74.50;;;;;;5031661;28;20064;-90
2022/06/24 03:10:50;;;;;;;7.43;5.60;;;20.10;74.50;;;;;;5013917;28;20046;-90
2022/06/24 03:13:18;;;;;;;9.13;6.25;;;20.20;74.50;;;;;;5030540;28;20051;-89
2022/06/24 03:15:45;;;;;;;11.90;6.43;;;20.10;74.50;;;;;;5031182;28;20056;-90
2022/06/24 03:18:14;;;;;;;9.05;5.75;;;20.10;74.60;;;;;;5032260;28;20052;-90
2022/06/24 03:20:41;;;;;;;7.57;5.90;;;20.10;74.60;;;;;;5032008;28;20045;-90
2022/06/24 03:23:12;;;;;;;9.60;6.05;;;20.00;74.60;;;;;;5032040;28;20042;-90
2022/06/24 03:25:39;;;;;;;9.88;5.30;;;20.00;74.60;;;;;;5031074;28;20046;-90
2022/06/24 03:28:06;;;;;;;8.90;6.18;;;20.00;74.70;;;;;;5033664;28;20080;-90
2022/06/24 03:30:33;;;;;;;9.10;6.25;;;20.00;74.70;;;;;;5031964;28;20049;-90
2022/06/24 03:33:01;;;;;;;8.50;5.43;;;19.90;74.70;;;;;;5030441;28;20041;-90
2022/06/24 03:35:29;;;;;;;9.13;5.47;;;19.90;74.70;;;;;;5032726;28;20057;-90
2022/06/24 03:37:56;;;;;;;7.63;5.43;;;19.90;74.70;;;;;;5033283;28;20045;-90
2022/06/24 03:40:23;;;;;;;9.90;5.47;;;19.90;74.70;;;;;;5032984;28;20119;-90
2022/06/24 03:42:50;;;;;;;9.02;6.10;;;19.90;74.70;;;;;;5032803;28;20099;-89
2022/06/24 03:45:18;;;;;;;7.88;5.82;;;19.90;74.80;;;;;;5031764;28;20068;-89
2022/06/24 03:47:45;;;;;;;8.40;6.22;;;19.80;74.80;;;;;;5031679;28;20041;-90
2022/06/24 03:50:12;;;;;;;8.73;6.10;;;19.80;74.80;;;;;;5029733;28;20411;-89
2022/06/24 03:52:39;;;;;;;7.53;6.15;;;19.80;74.80;;;;;;5032821;28;20054;-89
2022/06/24 03:55:06;;;;;;;8.48;5.97;;;19.70;74.80;;;;;;5032258;28;20107;-89
2022/06/24 03:57:32;;;;;;;8.95;5.90;;;19.70;74.80;;;;;;5030981;28;20123;-89
2022/06/24 04:00:00;;;;;;;9.82;6.00;;;19.70;74.80;;;;;;5029616;28;20053;-89
2022/06/24 04:02:27;;;;;;;10.23;5.60;;;19.60;74.90;;;;;;5032546;28;20502;-89
2022/06/24 04:04:54;;;;;;;7.65;5.78;;;19.60;74.90;;;;;;5029419;28;20061;-89
2022/06/24 04:07:21;;;;;;;8.20;5.85;;;19.60;75.00;;;;;;5013758;28;20045;-89
2022/06/24 04:09:48;;;;;;;11.02;6.35;;;19.60;75.00;;;;;;5029476;28;20528;-89
2022/06/24 04:12:15;;;;;;;11.50;6.10;;;19.60;75.00;;;;;;5029197;28;20053;-90
2022/06/24 04:17:28;;;;;;;12.23;5.68;;;19.50;75.10;;;;;;5029702;28;20042;-89
2022/06/24 04:19:55;;;;;;;10.18;6.10;;;19.50;75.10;;;;;;5030413;28;20060;-90
2022/06/24 04:22:22;;;;;;;12.88;6.00;;;19.50;75.20;;;;;;5032211;28;20041;-89
2022/06/24 04:24:48;;;;;;;10.50;5.80;;;19.50;75.20;;;;;;5028497;28;20052;-89
2022/06/24 04:27:15;;;;;;;16.38;6.78;;;19.40;75.20;;;;;;5024581;28;20068;-89
2022/06/24 04:29:42;;;;;;;14.80;6.30;;;19.40;75.30;;;;;;5029724;28;20049;-89
2022/06/24 04:32:10;;;;;;;12.27;6.30;;;19.40;75.30;;;;;;5029118;28;20171;-90
2022/06/24 04:34:38;;;;;;;8.82;5.53;;;19.40;75.30;;;;;;5030996;28;20064;-90
2022/06/24 04:37:06;;;;;;;8.25;5.68;;;19.40;75.30;;;;;;5032675;28;20068;-90
2022/06/24 04:39:33;;;;;;;10.30;5.95;;;19.40;75.40;;;;;;5031341;28;20052;-90
2022/06/24 04:42:00;;;;;;;8.98;5.63;;;19.40;75.40;;;;;;5030731;28;20429;-89
2022/06/24 04:44:27;;;;;;;11.27;5.80;;;19.40;75.40;;;;;;5031601;28;20052;-89
2022/06/24 04:46:54;;;;;;;14.85;6.20;;;19.40;75.50;;;;;;5030122;28;20054;-89
2022/06/24 04:49:21;;;;;;;11.73;5.57;;;19.40;75.60;;;;;;5032093;28;20100;-89
2022/06/24 04:51:48;;;;;;;12.77;6.43;;;19.40;75.60;;;;;;5030026;28;20564;-89
2022/06/24 04:54:15;;;;;;;10.05;5.63;;;19.40;75.60;;;;;;5031292;28;20052;-89
2022/06/24 04:56:42;;;;;;;8.73;5.90;;;19.40;75.60;;;;;;5025001;28;20049;-89
2022/06/24 04:59:09;;;;;;;13.48;5.90;;;19.40;75.60;;;;;;5028751;28;20057;-90
2022/06/24 05:01:36;;;;;;;14.70;6.55;;;19.40;75.70;;;;;;5030853;28;20111;-89
2022/06/24 05:04:03;;;;;;;16.70;5.93;;;19.40;75.70;;;;;;5030559;28;20046;-91
2022/06/24 05:06:32;;;;;;;11.20;6.22;;;19.40;75.80;;;;;;5029433;28;20417;-90
2022/06/24 05:08:59;;;;;;;14.55;6.85;;;19.40;75.70;;;;;;5029125;28;20057;-90
2022/06/24 05:11:26;;;;;;;10.10;6.97;;;19.40;75.80;;;;;;5029081;28;20498;-90
2022/06/24 05:13:53;;;;;;;15.05;6.63;;;19.40;75.80;;;;;;5030622;28;20045;-90
2022/06/24 05:16:20;;;;;;;11.50;7.05;;;19.40;75.70;;;;;;5026423;28;20453;-90
2022/06/24 05:19:05;;;;;;;9.45;6.45;;;19.40;75.70;;;;;;5016450;28;20046;-91
2022/06/24 05:21:32;;;;;;;8.73;6.30;;;19.40;75.70;;;;;;5020474;28;20052;-91
2022/06/24 05:23:59;;;;;;;16.42;6.75;;;19.30;75.70;;;;;;5020280;28;20042;-90
2022/06/24 05:26:26;;;;;;;17.00;6.50;;;19.30;75.60;;;;;;5018951;28;20045;-87
2022/06/24 05:28:53;;;;;;;19.55;6.30;;;19.20;75.60;;;;;;5047108;28;20068;-88
2022/06/24 05:31:20;;;;;;;16.83;6.18;;;19.20;75.70;;;;;;5027860;28;20053;-87
2022/06/24 05:33:47;;;;;;;14.60;6.35;;;19.20;75.80;;;;;;5041777;28;20077;-86
2022/06/24 05:36:14;;;;;;;15.15;5.97;;;19.10;76.00;;;;;;5029870;28;20052;-86
2022/06/24 05:38:42;;;;;;;12.50;5.45;;;19.10;76.20;;;;;;5029635;28;20050;-87
2022/06/24 05:41:12;;;;;;;10.23;4.97;;;19.00;76.30;;;;;;5030744;28;20473;-84
2022/06/24 05:43:39;;;;;;;15.60;5.93;;;19.00;76.50;;;;;;5029882;28;20057;-85
2022/06/24 05:46:06;;;;;;;11.98;4.80;;;18.90;76.60;;;;;;5016867;28;20460;-84
2022/06/24 05:48:33;;;;;;;8.52;4.35;;;18.90;76.70;;;;;;5041532;28;20486;-84
2022/06/24 05:51:06;;;;;;;8.52;4.30;;;18.80;76.90;;;;;;5020421;28;20418;-84
2022/06/24 05:56:19;;;;;;;10.80;3.58;;;18.80;77.10;;;;;;5015612;28;20046;-84
2022/06/24 05:58:46;;;;;;;7.85;3.35;;;18.70;77.20;;;;;;5015220;28;20492;-84
2022/06/24 06:01:14;;;;;;;8.77;3.95;;;18.70;77.40;;;;;;5015743;28;20056;-84
2022/06/24 06:03:41;;;;;;;6.53;3.88;;;18.60;77.50;;;;;;5026224;28;20056;-83
2022/06/24 06:06:09;;;;;;;8.63;4.07;;;18.60;77.50;;;;;;5024348;28;20050;-83
2022/06/24 06:08:37;;;;;;;7.00;3.80;;;18.60;77.70;;;;;;5017076;28;20525;-84
2022/06/24 06:11:19;;;;;;;8.88;3.70;;;18.60;77.70;;;;;;5030644;28;20053;-84
2022/06/24 06:13:47;;;;;;;6.93;3.42;;;18.60;77.80;;;;;;5018532;28;20045;-86
2022/06/24 06:16:15;;;;;;;9.90;3.60;;;18.50;77.90;;;;;;5034689;28;20506;-88
2022/06/24 06:18:42;;;;;;;8.00;3.40;;;18.60;77.90;;;;;;5032935;28;20446;-88
2022/06/24 06:21:11;;;;;;;12.57;3.60;;;18.50;78.00;;;;;;5029554;28;20456;-88
2022/06/24 06:23:40;;;;;;;7.35;3.33;;;18.50;78.00;;;;;;5029802;28;20469;-87
2022/06/24 06:26:08;;;;;;;5.82;3.38;;;18.50;78.10;;;;;;5034312;28;20061;-88
2022/06/24 06:28:37;;;;;;;6.28;3.22;;;18.50;78.10;;;;;;5034092;28;20521;-88
2022/06/24 06:31:04;;;;;;;6.47;3.40;;;18.50;78.20;;;;;;5028817;28;20049;-87
2022/06/24 06:33:31;;;;;;;7.65;3.05;;;18.50;78.20;;;;;;5047557;28;20103;-88
2022/06/24 06:36:07;;;;;;;5.82;3.30;;;18.50;78.30;;;;;;5039033;28;20049;-88
2022/06/24 06:38:34;;;;;;;6.80;2.60;;;18.50;78.30;;;;;;5031657;28;20052;-87
2022/06/24 06:41:02;;;;;;;6.70;2.88;;;18.50;78.30;;;;;;5031501;28;20103;-87
2022/06/24 06:43:29;;;;;;;5.90;3.10;;;18.50;78.40;;;;;;5015215;28;20458;-88
2022/06/24 06:45:56;;;;;;;5.20;2.90;;;18.50;78.40;;;;;;5029511;28;20069;-88
2022/06/24 06:48:24;;;;;;;7.00;3.30;;;18.50;78.40;;;;;;5029030;28;20071;-87
2022/06/24 06:50:56;;;;;;;5.30;2.90;;;18.50;78.40;;;;;;5033813;28;20053;-87
2022/06/24 06:53:24;;;;;;;5.10;2.88;;;18.50;78.50;;;;;;5029111;28;20088;-88
2022/06/24 06:55:51;;;;;;;9.80;3.22;;;18.50;78.50;;;;;;5033727;28;20052;-89
2022/06/24 06:58:19;;;;;;;5.38;2.80;;;18.50;78.50;;;;;;5018559;28;20049;-89
2022/06/24 07:00:46;;;;;;;7.00;3.05;;;18.50;78.60;;;;;;5017292;28;20058;-90
2022/06/24 07:03:14;;;;;;;5.43;3.05;;;18.50;78.60;;;;;;5024060;28;20053;-90
2022/06/24 07:05:42;;;;;;;9.20;3.00;;;18.50;78.60;;;;;;5032463;28;20053;-89
2022/06/24 07:08:13;;;;;;;4.93;3.00;;;18.50;78.60;;;;;;5030945;28;20046;-89
2022/06/24 07:10:42;;;;;;;7.88;3.08;;;18.50;78.60;;;;;;5032275;28;20080;-90
2022/06/24 07:13:10;;;;;;;6.50;3.05;;;18.50;78.70;;;;;;5032874;28;20422;-91
2022/06/24 07:15:37;;;;;;;8.43;2.88;;;18.50;78.70;;;;;;5023807;28;20054;-88
2022/06/24 07:18:05;;;;;;;5.53;2.90;;;18.50;78.80;;;;;;5028330;28;20042;-85
2022/06/24 07:20:33;;;;;;;4.82;3.00;;;18.50;78.80;;;;;;5031782;28;20049;-84
2022/06/24 07:23:00;;;;;;;8.55;3.10;;;18.50;78.80;;;;;;5029206;28;20422;-84
2022/06/24 07:25:27;;;;;;;5.35;3.33;;;18.50;78.90;;;;;;5032945;28;20395;-85
2022/06/24 07:27:54;;;;;;;5.15;2.90;;;18.60;78.90;;;;;;5016796;28;20061;-85
2022/06/24 07:30:21;;;;;;;5.45;3.10;;;18.60;79.00;;;;;;5025431;28;20494;-85
2022/06/24 07:32:48;;;;;;;5.68;2.92;;;18.60;79.10;;;;;;5028865;28;20065;-85
2022/06/24 07:35:15;;;;;;;6.55;3.05;;;18.60;79.10;;;;;;5017518;28;20042;-85
2022/06/24 07:38:03;;;;;;;5.22;2.70;;;18.60;79.10;;;;;;5017908;28;20053;-85
2022/06/24 07:40:30;;;;;;;4.38;2.70;;;18.70;79.20;;;;;;5016815;28;20054;-85
2022/06/24 07:42:57;;;;;;;6.72;2.95;;;18.70;79.20;;;;;;5028335;28;20049;-85
2022/06/24 07:45:24;;;;;;;5.25;2.80;;;18.70;79.20;;;;;;5031597;28;20057;-86
2022/06/24 07:47:52;;;;;;;6.10;2.70;;;18.70;79.20;;;;;;5028169;28;20055;-86
2022/06/24 07:50:19;;;;;;;4.97;2.58;;;18.80;79.20;;;;;;5036259;28;20057;-85
2022/06/24 07:52:46;;;;;;;4.15;2.45;;;18.80;79.20;;;;;;5032176;28;20522;-86
2022/06/24 07:57:58;;;;;;;4.20;2.20;;;18.80;79.20;;;;;;5017209;28;20054;-86
2022/06/24 08:00:26;;;;;;;4.80;2.72;;;18.90;79.30;;;;;;5025472;28;20049;-86
2022/06/24 08:02:53;;;;;;;4.05;2.40;;;18.90;79.30;;;;;;5028503;28;20045;-86
2022/06/24 08:05:21;;;;;;;5.03;2.28;;;18.90;79.30;;;;;;5032300;28;20545;-87
2022/06/24 08:07:47;;;;;;;4.53;2.30;;;18.90;79.30;;;;;;5016472;28;20505;-88
2022/06/24 08:10:14;;;;;;;4.13;2.30;;;19.00;79.20;;;;;;5028767;28;20041;-88
2022/06/24 08:12:41;;;;;;;4.13;2.13;;;19.10;79.30;;;;;;5030171;28;20045;-89
2022/06/24 08:15:08;;;;;;;4.50;2.13;;;19.10;79.30;;;;;;5028376;28;20045;-88
2022/06/24 08:17:35;;;;;;;3.72;1.85;;;19.20;79.20;;;;;;5028187;28;20060;-88
2022/06/24 08:20:03;;;;;;;3.95;2.20;;;19.30;79.10;;;;;;5029395;28;20056;-88
2022/06/24 08:22:30;;;;;;;3.50;1.88;;;19.30;79.00;;;;;;5014588;28;20057;-88
2022/06/24 08:24:58;;;;;;;5.00;2.03;;;19.40;79.00;;;;;;5017313;28;20053;-88
2022/06/24 08:27:45;;;;;;;5.38;2.03;;;19.40;78.90;;;;;;5038003;28;20455;-88
2022/06/24 08:30:12;;;;;;;4.00;1.80;;;19.40;78.80;;;;;;5020672;28;20428;-88
2022/06/24 08:32:39;;;;;;;3.90;1.95;;;19.50;78.70;;;;;;5017326;28;20112;-89
2022/06/24 08:35:06;;;;;;;3.55;1.88;;;19.50;78.60;;;;;;5028997;28;20081;-88
2022/06/24 08:37:52;;;;;;;3.70;1.75;;;19.60;78.60;;;;;;5016792;28;20053;-88
2022/06/24 08:40:20;;;;;;;3.05;1.60;;;19.60;78.50;;;;;;5030553;28;20056;-88
2022/06/24 08:42:53;;;;;;;3.78;1.70;;;19.60;78.40;;;;;;5035002;28;20062;-88
2022/06/24 08:45:21;;;;;;;3.35;1.58;;;19.70;78.40;;;;;;5020468;28;20072;-88
2022/06/24 08:47:49;;;;;;;3.28;1.70;;;19.80;78.30;;;;;;5019633;28;20049;-88
2022/06/24 08:50:17;;;;;;;3.47;1.50;;;19.70;78.30;;;;;;5030522;28;20041;-88
2022/06/24 08:52:52;;;;;;;4.13;1.65;;;19.80;78.20;;;;;;5014408;28;20510;-89
2022/06/24 08:55:23;;;;;;;3.78;1.60;;;19.80;78.10;;;;;;5028273;28;20487;-88
2022/06/24 08:57:50;;;;;;;3.55;1.50;;;19.90;78.10;;;;;;5017678;28;20050;-88
2022/06/24 09:00:18;;;;;;;2.45;1.45;;;19.90;78.00;;;;;;5020601;28;20052;-88
2022/06/24 09:02:47;;;;;;;2.60;1.48;;;19.90;78.00;;;;;;5015588;28;20154;-88
2022/06/24 09:05:15;;;;;;;5.55;1.85;;;19.90;77.90;;;;;;5018394;28;20041;-88
2022/06/24 09:07:42;;;;;;;3.63;1.80;;;19.90;77.90;;;;;;5015449;28;20049;-89
2022/06/24 09:10:12;;;;;;;3.47;1.60;;;19.90;77.90;;;;;;5027357;28;20132;-88
2022/06/24 09:12:42;;;;;;;3.42;1.60;;;19.90;77.90;;;;;;5030949;28;20128;-89
2022/06/24 09:15:11;;;;;;;4.40;1.70;;;20.00;77.90;;;;;;5024451;28;20054;-88
2022/06/24 09:17:39;;;;;;;3.22;1.70;;;19.90;77.90;;;;;;5018313;28;20050;-89
2022/06/24 09:20:11;;;;;;;2.35;1.40;;;20.00;78.00;;;;;;5028890;28;20050;-90
2022/06/24 09:23:05;;;;;;;3.05;1.50;;;20.00;78.10;;;;;;5042732;28;20403;-88
2022/06/24 09:25:49;;;;;;;2.33;1.25;;;20.10;78.20;;;;;;5029349;28;20072;-88
2022/06/24 09:28:24;;;;;;;2.72;1.38;;;20.10;78.40;;;;;;5028005;28;20096;-89
2022/06/24 09:31:09;;;;;;;5.45;2.00;;;20.20;78.40;;;;;;5029804;28;20046;-90
2022/06/24 09:33:39;;;;;;;5.57;1.40;;;20.20;78.40;;;;;;5015293;28;20065;-90
2022/06/24 09:36:08;;;;;;;5.53;1.98;;;20.30;78.40;;;;;;5014602;28;20101;-89
2022/06/24 09:39:02;;;;;;;4.65;2.05;;;20.40;78.40;;;;;;5016381;28;20038;-89
2022/06/24 09:41:30;;;;;;;3.80;1.60;;;20.40;78.40;;;;;;5028058;28;20052;-90
2022/06/24 09:43:59;;;;;;;6.38;1.70;;;20.40;78.30;;;;;;5030106;28;20057;-89
2022/06/24 09:46:26;;;;;;;7.72;2.22;;;20.50;78.30;;;;;;5017157;28;20045;-88
2022/06/24 09:49:02;;;;;;;5.38;1.90;;;20.60;78.30;;;;;;5035443;28;20056;-89
2022/06/24 09:51:30;;;;;;;5.05;1.55;;;20.70;78.30;;;;;;5033828;28;20058;-89
2022/06/24 09:53:57;;;;;;;5.53;2.50;;;20.70;78.30;;;;;;5034841;28;20041;-90
2022/06/24 09:56:24;;;;;;;5.13;1.83;;;20.80;78.20;;;;;;5028851;28;20112;-90
2022/06/24 10:01:38;;;;;;;4.20;2.10;;;20.90;77.90;;;;;;5034985;28;20058;-90
2022/06/24 10:04:12;;;;;;;7.53;2.00;;;20.90;77.60;;;;;;5030047;28;20061;-91
2022/06/24 10:06:43;;;;;;;3.67;1.85;;;21.00;77.40;;;;;;5030510;28;20054;-91
2022/06/24 10:09:11;;;;;;;4.72;1.98;;;21.10;77.30;;;;;;5023565;28;20042;-91
2022/06/24 10:11:43;;;;;;;3.78;1.90;;;21.10;77.20;;;;;;5019375;28;20045;-90
2022/06/24 10:14:12;;;;;;;3.88;1.90;;;21.10;77.00;;;;;;5022983;28;20501;-91
2022/06/24 10:16:42;;;;;;;5.45;1.92;;;21.10;76.90;;;;;;5034430;28;20061;-91
2022/06/24 10:19:13;;;;;;;5.68;1.88;;;21.20;76.80;;;;;;5035566;28;20072;-91
2022/06/24 10:21:48;;;;;;;6.32;1.90;;;21.30;76.80;;;;;;5033613;28;20049;-91
2022/06/24 10:24:16;;;;;;;5.53;2.00;;;21.20;76.80;;;;;;5022256;28;20411;-92
2022/06/24 10:26:51;;;;;;;4.43;2.20;;;21.30;76.70;;;;;;5019133;28;20502;-91
2022/06/24 10:29:20;;;;;;;3.25;1.70;;;21.30;76.60;;;;;;5023535;28;20061;-90
2022/06/24 10:31:56;;;;;;;4.10;2.00;;;21.40;76.50;;;;;;5018177;28;20116;-91
2022/06/24 10:34:26;;;;;;;4.80;2.47;;;21.40;76.50;;;;;;5017493;28;20411;-90
2022/06/24 10:36:57;;;;;;;5.65;2.78;;;21.40;76.40;;;;;;5034035;28;20058;-91
2022/06/24 10:39:32;;;;;;;6.13;3.20;;;21.40;76.30;;;;;;5025442;28;20495;-91
2022/06/24 10:42:03;;;;;;;5.68;2.47;;;21.40;76.10;;;;;;5022260;28;20049;-90
2022/06/24 10:44:33;;;;;;;5.32;2.05;;;21.40;76.00;;;;;;5021836;28;20052;-90
2022/06/24 10:47:12;;;;;;;4.95;2.20;;;21.40;76.00;;;;;;5018669;28;20045;-90
2022/06/24 10:49:51;;;;;;;5.05;2.22;;;21.40;76.00;;;;;;5065086;28;20045;-91
2022/06/24 10:52:37;;;;;;;4.65;1.85;;;21.50;76.00;;;;;;5042050;28;20556;-88
2022/06/24 10:58:01;;;;;;;4.80;2.22;;;21.40;76.10;;;;;;5019999;28;20057;-89
2022/06/24 11:00:29;;;;;;;4.55;1.83;;;21.40;76.00;;;;;;5027289;28;20049;-89
2022/06/24 11:03:02;;;;;;;4.97;2.00;;;21.40;76.10;;;;;;5032524;28;20083;-90
2022/06/24 11:05:33;;;;;;;4.05;2.42;;;21.40;76.10;;;;;;5033612;28;20111;-92
2022/06/24 11:08:02;;;;;;;3.47;1.73;;;21.40;76.10;;;;;;5032471;28;20053;-91
2022/06/24 11:10:31;;;;;;;3.97;1.80;;;21.40;76.10;;;;;;5030531;28;20045;-90
2022/06/24 11:13:00;;;;;;;3.67;1.70;;;21.40;76.10;;;;;;5020131;28;20415;-94
2022/06/24 11:15:42;;;;;;;4.00;1.90;;;21.30;76.10;;;;;;5023670;28;20049;-93
2022/06/24 11:18:27;;;;;;;6.13;1.80;;;21.30;76.10;;;;;;5029267;28;20049;-93
2022/06/24 11:20:59;;;;;;;4.85;1.90;;;21.30;76.10;;;;;;5033942;28;20060;-92
2022/06/24 11:23:29;;;;;;;6.28;2.17;;;21.30;76.10;;;;;;5034003;28;20056;-92
2022/06/24 11:26:12;;;;;;;4.70;1.88;;;21.30;76.10;;;;;;5035236;28;20057;-92
2022/06/24 11:28:41;;;;;;;7.68;2.20;;;21.20;76.20;;;;;;5016675;28;20388;-94
2022/06/24 11:31:27;;;;;;;4.25;1.90;;;21.20;76.30;;;;;;5033660;28;20049;-92
2022/06/24 11:34:03;;;;;;;4.30;1.75;;;21.20;76.40;;;;;;5021574;28;20132;-93
2022/06/24 11:36:31;;;;;;;3.50;2.00;;;21.20;76.50;;;;;;5064835;28;20565;-92
2022/06/24 11:39:02;;;;;;;3.08;1.70;;;21.20;76.60;;;;;;5023778;28;20495;-92
2022/06/24 11:41:31;;;;;;;3.67;2.00;;;21.20;76.70;;;;;;5014222;28;20054;-93
2022/06/24 11:44:13;;;;;;;3.30;1.60;;;21.30;76.80;;;;;;5015302;28;20050;-93
2022/06/24 11:46:48;;;;;;;3.35;1.70;;;21.40;76.90;;;;;;5015034;28;20057;-93
2022/06/24 11:49:16;;;;;;;4.05;1.73;;;21.40;76.90;;;;;;5013201;28;20054;-91
2022/06/24 11:51:46;;;;;;;3.08;1.63;;;21.40;76.80;;;;;;5051232;28;20041;-92
2022/06/24 11:54:13;;;;;;;2.90;1.60;;;21.60;76.90;;;;;;5052952;28;20092;-91
2022/06/24 11:56:42;;;;;;;3.05;1.40;;;21.60;76.80;;;;;;5039655;28;20061;-91
2022/06/24 11:59:13;;;;;;;3.53;1.60;;;21.70;76.60;;;;;;5017791;28;20050;-91
2022/06/24 12:01:46;;;;;;;2.60;1.40;;;21.80;76.30;;;;;;5048756;28;20209;-92
2022/06/24 12:04:14;;;;;;;3.42;1.60;;;21.90;76.10;;;;;;5032715;28;20088;-92
2022/06/24 12:06:42;;;;;;;3.30;1.58;;;22.00;75.90;;;;;;5033475;28;20136;-93
2022/06/24 12:09:10;;;;;;;5.18;1.80;;;22.10;75.70;;;;;;5032979;28;20426;-93
2022/06/24 12:11:38;;;;;;;4.03;1.80;;;22.20;75.50;;;;;;5028762;28;20052;-92
2022/06/24 12:14:09;;;;;;;2.97;1.60;;;22.30;75.40;;;;;;5035654;28;20046;-92
2022/06/24 12:17:08;;;;;;;2.90;1.48;;;22.40;75.10;;;;;;5033575;28;20498;-91
2022/06/24 12:19:40;;;;;;;3.33;1.40;;;22.50;74.90;;;;;;5032428;28;20060;-92
2022/06/24 12:22:12;;;;;;;4.22;1.50;;;22.60;74.60;;;;;;5033714;28;20045;-93
2022/06/24 12:24:40;;;;;;;2.97;1.38;;;22.70;74.40;;;;;;5016797;28;20054;-92
2022/06/24 12:27:08;;;;;;;3.97;1.50;;;22.80;74.20;;;;;;5020041;28;20462;-92
2022/06/24 12:29:39;;;;;;;3.45;1.55;;;22.90;74.00;;;;;;5035136;28;20053;-92
2022/06/24 12:32:12;;;;;;;3.95;1.30;;;23.00;73.70;;;;;;5044172;28;20049;-92
2022/06/24 12:34:41;;;;;;;3.30;1.40;;;23.10;73.40;;;;;;5015697;28;20057;-91
2022/06/24 12:37:11;;;;;;;2.50;1.20;;;23.20;73.10;;;;;;5033161;28;20520;-92
2022/06/24 12:39:43;;;;;;;2.75;1.40;;;23.40;72.70;;;;;;5014467;28;20069;-92
2022/06/24 12:42:17;;;;;;;3.28;1.30;;;23.50;72.50;;;;;;5028557;28;20049;-92
2022/06/24 12:44:47;;;;;;;3.67;1.40;;;23.60;72.10;;;;;;5032223;28;20132;-92
2022/06/24 12:53:05;;;;;;;2.67;1.10;;;23.90;71.10;;;;;;5016365;28;20256;-91
2022/06/24 12:55:33;;;;;;;2.15;1.05;;;23.90;70.70;;;;;;5030276;28;20045;-90
2022/06/24 12:58:02;;;;;;;11.65;1.42;;;23.90;70.40;;;;;;5012990;28;20069;-92
2022/06/24 13:00:29;;;;;;;2.35;1.20;;;23.90;70.00;;;;;;5030749;28;20056;-92
2022/06/24 13:02:58;;;;;;;3.70;1.45;;;23.90;69.80;;;;;;5025865;28;20045;-92
2022/06/24 13:05:28;;;;;;;4.13;1.60;;;24.00;69.70;;;;;;5014923;28;20565;-92
2022/06/24 13:07:55;;;;;;;3.20;1.20;;;24.00;69.60;;;;;;5030448;28;20136;-93
2022/06/24 13:10:22;;;;;;;3.33;1.42;;;23.90;69.40;;;;;;5030401;28;20053;-91
2022/06/24 13:12:50;;;;;;;5.47;1.40;;;23.90;69.20;;;;;;5030369;28;20502;-92
2022/06/24 13:15:21;;;;;;;2.42;1.20;;;23.90;69.10;;;;;;5030090;28;20136;-91
2022/06/24 13:17:47;;;;;;;3.50;1.30;;;23.90;69.10;;;;;;5028227;28;20119;-92
2022/06/24 13:20:15;;;;;;;4.53;1.23;;;23.90;69.10;;;;;;5031479;28;20088;-92